SID2408 SBEG-SBFZ
Flight info
| Callsign | SID2408 |
|---|---|
| Flight time | 3h 5m |
| Altitude | 33000 |
| Route | DCT XOLOK DCT PUDVO/N0459F350 UZ12 ESDAB DCT FLZ DCT SBFZ |
| Aircraft | B738/M-SDE2E3FGHIRWXY/LB1 |
Departure
| Time | 2026-04-21 20:50 |
|---|---|
| Airport | Eduardo Gomes International Airport (SBEG) |
Arrival
| Time | 2026-04-21 23:56 |
|---|---|
| Airport | Pinto Martins International Airport (SBFZ) |
| Time | Latitude | Longitude | Altitude | Speed | Heading |
|---|---|---|---|---|---|
| 2026-04-21 20:28 | -3.03145 | -60.04047 | 267 ft | 0 kts | 345° |
| 2026-04-21 20:39 | -3.03147 | -60.04046 | 267 ft | 2 kts | 344° |
| 2026-04-21 20:39 | -3.03163 | -60.04042 | 267 ft | 2 kts | 346° |
| 2026-04-21 20:39 | -3.03179 | -60.04037 | 267 ft | 2 kts | 319° |
| 2026-04-21 20:40 | -3.03190 | -60.04025 | 267 ft | 2 kts | 301° |
| 2026-04-21 20:40 | -3.03198 | -60.04010 | 267 ft | 2 kts | 291° |
| 2026-04-21 20:40 | -3.03203 | -60.03994 | 267 ft | 2 kts | 283° |
| 2026-04-21 20:40 | -3.03205 | -60.03980 | 267 ft | 1 kts | 269° |
| 2026-04-21 20:41 | -3.03205 | -60.03977 | 267 ft | 0 kts | 264° |
| 2026-04-21 20:43 | -3.03209 | -60.03994 | 267 ft | 6 kts | 257° |
| 2026-04-21 20:44 | -3.03222 | -60.04045 | 267 ft | 10 kts | 253° |
| 2026-04-21 20:44 | -3.03244 | -60.04128 | 267 ft | 16 kts | 255° |
| 2026-04-21 20:44 | -3.03280 | -60.04260 | 267 ft | 22 kts | 255° |
| 2026-04-21 20:44 | -3.03325 | -60.04401 | 267 ft | 21 kts | 252° |
| 2026-04-21 20:45 | -3.03353 | -60.04546 | 267 ft | 21 kts | 263° |
| 2026-04-21 20:45 | -3.03353 | -60.04685 | 267 ft | 20 kts | 273° |
| 2026-04-21 20:45 | -3.03395 | -60.04812 | 267 ft | 19 kts | 233° |
| 2026-04-21 20:45 | -3.03496 | -60.04896 | 267 ft | 19 kts | 217° |
| 2026-04-21 20:46 | -3.03575 | -60.04994 | 267 ft | 18 kts | 246° |
| 2026-04-21 20:46 | -3.03609 | -60.05112 | 267 ft | 17 kts | 256° |
| 2026-04-21 20:46 | -3.03641 | -60.05226 | 267 ft | 17 kts | 255° |
| 2026-04-21 20:46 | -3.03669 | -60.05338 | 268 ft | 17 kts | 258° |
| 2026-04-21 20:47 | -3.03689 | -60.05466 | 267 ft | 20 kts | 264° |
| 2026-04-21 20:47 | -3.03691 | -60.05605 | 267 ft | 20 kts | 270° |
| 2026-04-21 20:47 | -3.03691 | -60.05738 | 267 ft | 19 kts | 269° |
| 2026-04-21 20:47 | -3.03691 | -60.05868 | 267 ft | 18 kts | 270° |
| 2026-04-21 20:48 | -3.03691 | -60.05995 | 267 ft | 18 kts | 270° |
| 2026-04-21 20:48 | -3.03691 | -60.06115 | 267 ft | 9 kts | 263° |
| 2026-04-21 20:48 | -3.03731 | -60.06161 | 267 ft | 9 kts | 214° |
| 2026-04-21 20:48 | -3.03755 | -60.06172 | 267 ft | 0 kts | 195° |
| 2026-04-21 20:49 | -3.03757 | -60.06173 | 267 ft | 2 kts | 192° |
| 2026-04-21 20:49 | -3.03807 | -60.06174 | 268 ft | 10 kts | 180° |
| 2026-04-21 20:49 | -3.03858 | -60.06137 | 268 ft | 10 kts | 98° |
| 2026-04-21 20:49 | -3.03858 | -60.06121 | 268 ft | 0 kts | 90° |
| 2026-04-21 20:50 | -3.03858 | -60.06040 | 268 ft | 40 kts | 90° |
| 2026-04-21 20:50 | -3.03860 | -60.05516 | 267 ft | 109 kts | 90° |
| 2026-04-21 20:50 | -3.03870 | -60.04557 | 299 ft | 161 kts | 92° |
| 2026-04-21 20:50 | -3.03889 | -60.03386 | 875 ft | 172 kts | 91° |
| 2026-04-21 20:51 | -3.03912 | -60.02193 | 1734 ft | 170 kts | 92° |
| 2026-04-21 20:51 | -3.03903 | -60.00997 | 2462 ft | 178 kts | 84° |
| 2026-04-21 20:51 | -3.03717 | -59.99664 | 2802 ft | 208 kts | 82° |
| 2026-04-21 20:51 | -3.03481 | -59.98152 | 2972 ft | 233 kts | 82° |
| 2026-04-21 20:52 | -3.03315 | -59.97066 | 3255 ft | 241 kts | 82° |
| 2026-04-21 20:52 | -3.03069 | -59.95386 | 3818 ft | 247 kts | 82° |
| 2026-04-21 20:52 | -3.02740 | -59.93016 | 4490 ft | 268 kts | 83° |
| 2026-04-21 20:52 | -3.02495 | -59.91156 | 5273 ft | 271 kts | 83° |
| 2026-04-21 20:53 | -3.02255 | -59.89288 | 6107 ft | 273 kts | 83° |
| 2026-04-21 20:53 | -3.02019 | -59.87389 | 6842 ft | 277 kts | 83° |
| 2026-04-21 20:53 | -3.01864 | -59.86109 | 7337 ft | 280 kts | 84° |
| 2026-04-21 20:53 | -3.01550 | -59.83495 | 8282 ft | 286 kts | 84° |
| 2026-04-21 20:54 | -3.01394 | -59.82186 | 8757 ft | 289 kts | 84° |
| 2026-04-21 20:54 | -3.01156 | -59.80174 | 9500 ft | 292 kts | 84° |
| 2026-04-21 20:54 | -3.00918 | -59.78146 | 10144 ft | 298 kts | 84° |
| 2026-04-21 20:54 | -3.00670 | -59.76008 | 10337 ft | 321 kts | 84° |
| 2026-04-21 20:55 | -3.00320 | -59.72987 | 10864 ft | 336 kts | 84° |
| 2026-04-21 20:55 | -3.00049 | -59.70654 | 11494 ft | 339 kts | 84° |
| 2026-04-21 20:55 | -2.99777 | -59.68304 | 12154 ft | 341 kts | 84° |
| 2026-04-21 20:55 | -2.99595 | -59.66738 | 12580 ft | 343 kts | 84° |
| 2026-04-21 20:56 | -2.99320 | -59.64358 | 13204 ft | 347 kts | 84° |
| 2026-04-21 20:56 | -2.99041 | -59.61945 | 13799 ft | 351 kts | 84° |
| 2026-04-21 20:56 | -2.98759 | -59.59508 | 14350 ft | 354 kts | 84° |
| 2026-04-21 20:56 | -2.98476 | -59.57054 | 14902 ft | 356 kts | 84° |
| 2026-04-21 20:57 | -2.98097 | -59.53777 | 15648 ft | 360 kts | 83° |
| 2026-04-21 20:57 | -2.97902 | -59.52093 | 16032 ft | 362 kts | 83° |
| 2026-04-21 20:57 | -2.97615 | -59.49615 | 16544 ft | 365 kts | 83° |
| 2026-04-21 20:57 | -2.97323 | -59.47084 | 17071 ft | 368 kts | 83° |
| 2026-04-21 20:58 | -2.97027 | -59.44531 | 17583 ft | 371 kts | 82° |
| 2026-04-21 20:58 | -2.96729 | -59.41955 | 18108 ft | 374 kts | 82° |
| 2026-04-21 20:58 | -2.96429 | -59.39362 | 18560 ft | 377 kts | 82° |
| 2026-04-21 20:58 | -2.96127 | -59.36748 | 19015 ft | 379 kts | 82° |
| 2026-04-21 20:59 | -2.95823 | -59.34120 | 19471 ft | 381 kts | 82° |
| 2026-04-21 20:59 | -2.95517 | -59.31482 | 19912 ft | 383 kts | 82° |
| 2026-04-21 20:59 | -2.95209 | -59.28820 | 20350 ft | 386 kts | 83° |
| 2026-04-21 20:59 | -2.94904 | -59.26182 | 20772 ft | 389 kts | 83° |
| 2026-04-21 21:00 | -2.94593 | -59.23492 | 21189 ft | 391 kts | 83° |
| 2026-04-21 21:00 | -2.94279 | -59.20782 | 21617 ft | 394 kts | 83° |
| 2026-04-21 21:00 | -2.93962 | -59.18049 | 22028 ft | 396 kts | 83° |
| 2026-04-21 21:00 | -2.93645 | -59.15310 | 22441 ft | 398 kts | 83° |
| 2026-04-21 21:01 | -2.93324 | -59.12544 | 22828 ft | 401 kts | 83° |
| 2026-04-21 21:01 | -2.93002 | -59.09766 | 23225 ft | 403 kts | 83° |
| 2026-04-21 21:01 | -2.92679 | -59.06978 | 23571 ft | 406 kts | 83° |
| 2026-04-21 21:01 | -2.92353 | -59.04161 | 23907 ft | 407 kts | 83° |
| 2026-04-21 21:02 | -2.92026 | -59.01348 | 24273 ft | 408 kts | 83° |
| 2026-04-21 21:02 | -2.91699 | -58.98527 | 24632 ft | 409 kts | 83° |
| 2026-04-21 21:02 | -2.91375 | -58.95737 | 24963 ft | 410 kts | 83° |
| 2026-04-21 21:02 | -2.91046 | -58.92904 | 25289 ft | 411 kts | 83° |
| 2026-04-21 21:03 | -2.90716 | -58.90061 | 25630 ft | 413 kts | 83° |
| 2026-04-21 21:03 | -2.90384 | -58.87204 | 25965 ft | 414 kts | 83° |
| 2026-04-21 21:03 | -2.90052 | -58.84339 | 26309 ft | 415 kts | 83° |
| 2026-04-21 21:03 | -2.89718 | -58.81468 | 26625 ft | 416 kts | 83° |
| 2026-04-21 21:04 | -2.89384 | -58.78588 | 26946 ft | 417 kts | 83° |
| 2026-04-21 21:04 | -2.89048 | -58.75706 | 27269 ft | 419 kts | 83° |
| 2026-04-21 21:04 | -2.88711 | -58.72805 | 27581 ft | 420 kts | 83° |
| 2026-04-21 21:04 | -2.88378 | -58.69935 | 27894 ft | 421 kts | 83° |
| 2026-04-21 21:05 | -2.88039 | -58.67029 | 28191 ft | 422 kts | 83° |
| 2026-04-21 21:05 | -2.87699 | -58.64102 | 28485 ft | 424 kts | 83° |
| 2026-04-21 21:05 | -2.87357 | -58.61165 | 28770 ft | 425 kts | 84° |
| 2026-04-21 21:05 | -2.87015 | -58.58228 | 29053 ft | 427 kts | 84° |
| 2026-04-21 21:06 | -2.86671 | -58.55269 | 29336 ft | 428 kts | 84° |
| 2026-04-21 21:06 | -2.86326 | -58.52309 | 29602 ft | 430 kts | 84° |
| 2026-04-21 21:06 | -2.85984 | -58.49372 | 29872 ft | 431 kts | 84° |
| 2026-04-21 21:06 | -2.85637 | -58.46395 | 30099 ft | 432 kts | 84° |
| 2026-04-21 21:07 | -2.85289 | -58.43401 | 30316 ft | 433 kts | 84° |
| 2026-04-21 21:07 | -2.84940 | -58.40408 | 30529 ft | 434 kts | 84° |
| 2026-04-21 21:07 | -2.84590 | -58.37403 | 30750 ft | 436 kts | 84° |
| 2026-04-21 21:07 | -2.84238 | -58.34387 | 30952 ft | 437 kts | 84° |
| 2026-04-21 21:08 | -2.83885 | -58.31362 | 31158 ft | 438 kts | 84° |
| 2026-04-21 21:08 | -2.83533 | -58.28339 | 31356 ft | 440 kts | 84° |
| 2026-04-21 21:08 | -2.83178 | -58.25299 | 31550 ft | 441 kts | 84° |
| 2026-04-21 21:08 | -2.82822 | -58.22245 | 31745 ft | 442 kts | 84° |
| 2026-04-21 21:09 | -2.82465 | -58.19190 | 31932 ft | 443 kts | 84° |
| 2026-04-21 21:09 | -2.82111 | -58.16163 | 32115 ft | 444 kts | 84° |
| 2026-04-21 21:09 | -2.81753 | -58.13094 | 32304 ft | 445 kts | 84° |
| 2026-04-21 21:09 | -2.81394 | -58.10018 | 32516 ft | 446 kts | 84° |
| 2026-04-21 21:10 | -2.81034 | -58.06943 | 32782 ft | 444 kts | 84° |
| 2026-04-21 21:10 | -2.80675 | -58.03867 | 32825 ft | 447 kts | 84° |
| 2026-04-21 21:10 | -2.79954 | -57.97702 | 32837 ft | 445 kts | 84° |
| 2026-04-21 21:11 | -2.79237 | -57.91577 | 32844 ft | 442 kts | 84° |
| 2026-04-21 21:11 | -2.78529 | -57.85528 | 32850 ft | 440 kts | 84° |
| 2026-04-21 21:12 | -2.77818 | -57.79452 | 32850 ft | 439 kts | 84° |
| 2026-04-21 21:12 | -2.77108 | -57.73390 | 32851 ft | 439 kts | 84° |
| 2026-04-21 21:13 | -2.76396 | -57.67310 | 32849 ft | 440 kts | 84° |
| 2026-04-21 21:13 | -2.75688 | -57.61272 | 32854 ft | 441 kts | 85° |
| 2026-04-21 21:14 | -2.74971 | -57.55162 | 32854 ft | 443 kts | 84° |
| 2026-04-21 21:14 | -2.74253 | -57.49040 | 32857 ft | 444 kts | 85° |
| 2026-04-21 21:15 | -2.73533 | -57.42903 | 32856 ft | 445 kts | 85° |
| 2026-04-21 21:15 | -2.72815 | -57.36795 | 32854 ft | 446 kts | 84° |
| 2026-04-21 21:16 | -2.72092 | -57.30642 | 32855 ft | 446 kts | 84° |
| 2026-04-21 21:16 | -2.71367 | -57.24475 | 32855 ft | 446 kts | 84° |
| 2026-04-21 21:17 | -2.70643 | -57.18314 | 32856 ft | 446 kts | 84° |
| 2026-04-21 21:17 | -2.69919 | -57.12159 | 32856 ft | 446 kts | 84° |
| 2026-04-21 21:18 | -2.69200 | -57.06049 | 32856 ft | 445 kts | 84° |
| 2026-04-21 21:18 | -2.68475 | -56.99891 | 32859 ft | 445 kts | 84° |
| 2026-04-21 21:19 | -2.67751 | -56.93747 | 32858 ft | 445 kts | 84° |
| 2026-04-21 21:19 | -2.67027 | -56.87607 | 32857 ft | 445 kts | 84° |
| 2026-04-21 21:20 | -2.66307 | -56.81501 | 32856 ft | 444 kts | 84° |
| 2026-04-21 21:20 | -2.65583 | -56.75362 | 32856 ft | 444 kts | 84° |
| 2026-04-21 21:21 | -2.64859 | -56.69224 | 32858 ft | 444 kts | 84° |
| 2026-04-21 21:21 | -2.64135 | -56.63089 | 32858 ft | 445 kts | 84° |
| 2026-04-21 21:22 | -2.63414 | -56.56983 | 32860 ft | 445 kts | 85° |
| 2026-04-21 21:22 | -2.62688 | -56.50834 | 32857 ft | 445 kts | 85° |
| 2026-04-21 21:23 | -2.61972 | -56.44686 | 32858 ft | 445 kts | 87° |
| 2026-04-21 21:23 | -2.62276 | -56.38542 | 32866 ft | 443 kts | 100° |
| 2026-04-21 21:24 | -2.63317 | -56.32465 | 32860 ft | 443 kts | 101° |
| 2026-04-21 21:24 | -2.64364 | -56.26435 | 32859 ft | 444 kts | 101° |
| 2026-04-21 21:25 | -2.65391 | -56.20347 | 32857 ft | 444 kts | 100° |
| 2026-04-21 21:25 | -2.66400 | -56.14254 | 32859 ft | 444 kts | 100° |
| 2026-04-21 21:26 | -2.67404 | -56.08159 | 32862 ft | 445 kts | 100° |
| 2026-04-21 21:26 | -2.68402 | -56.02095 | 32866 ft | 445 kts | 100° |
| 2026-04-21 21:27 | -2.69406 | -55.95999 | 32864 ft | 445 kts | 101° |
| 2026-04-21 21:27 | -2.70411 | -55.89894 | 32860 ft | 445 kts | 100° |
| 2026-04-21 21:28 | -2.71416 | -55.83792 | 32863 ft | 445 kts | 101° |
| 2026-04-21 21:29 | -2.72916 | -55.74675 | 32863 ft | 445 kts | 101° |
| 2026-04-21 21:29 | -2.73919 | -55.68576 | 32866 ft | 445 kts | 101° |
| 2026-04-21 21:30 | -2.74923 | -55.62473 | 32862 ft | 445 kts | 101° |
| 2026-04-21 21:30 | -2.75927 | -55.56366 | 32863 ft | 445 kts | 101° |
| 2026-04-21 21:31 | -2.76930 | -55.50261 | 32863 ft | 445 kts | 101° |
| 2026-04-21 21:31 | -2.77925 | -55.44199 | 32868 ft | 445 kts | 101° |
| 2026-04-21 21:32 | -2.78927 | -55.38099 | 32864 ft | 445 kts | 101° |
| 2026-04-21 21:32 | -2.79928 | -55.32001 | 32863 ft | 445 kts | 101° |
| 2026-04-21 21:33 | -2.80931 | -55.25889 | 32867 ft | 445 kts | 101° |
| 2026-04-21 21:33 | -2.81926 | -55.19830 | 32864 ft | 445 kts | 101° |
| 2026-04-21 21:34 | -2.82927 | -55.13722 | 32865 ft | 445 kts | 101° |
| 2026-04-21 21:34 | -2.83928 | -55.07620 | 32865 ft | 445 kts | 101° |
| 2026-04-21 21:35 | -2.84923 | -55.01545 | 32868 ft | 445 kts | 101° |
| 2026-04-21 21:35 | -2.85925 | -54.95431 | 32866 ft | 446 kts | 101° |
| 2026-04-21 21:36 | -2.86927 | -54.89310 | 32873 ft | 446 kts | 101° |
| 2026-04-21 21:36 | -2.87931 | -54.83181 | 32868 ft | 448 kts | 101° |
| 2026-04-21 21:37 | -2.88938 | -54.77029 | 32869 ft | 448 kts | 101° |
| 2026-04-21 21:37 | -2.89938 | -54.70914 | 32871 ft | 449 kts | 101° |
| 2026-04-21 21:38 | -2.90948 | -54.64740 | 32871 ft | 450 kts | 101° |
| 2026-04-21 21:38 | -2.91959 | -54.58560 | 32872 ft | 450 kts | 101° |
| 2026-04-21 21:39 | -2.92969 | -54.52378 | 32870 ft | 451 kts | 101° |
| 2026-04-21 21:39 | -2.93980 | -54.46191 | 32872 ft | 451 kts | 101° |
| 2026-04-21 21:40 | -2.94983 | -54.40044 | 32873 ft | 450 kts | 101° |
| 2026-04-21 21:40 | -2.95991 | -54.33870 | 32873 ft | 450 kts | 101° |
| 2026-04-21 21:41 | -2.96999 | -54.27693 | 32866 ft | 449 kts | 101° |
| 2026-04-21 21:41 | -2.98003 | -54.21541 | 32872 ft | 448 kts | 101° |
| 2026-04-21 21:42 | -2.99006 | -54.15391 | 32873 ft | 447 kts | 101° |
| 2026-04-21 21:42 | -3.00000 | -54.09294 | 32872 ft | 447 kts | 101° |
| 2026-04-21 21:43 | -3.00998 | -54.03169 | 32871 ft | 446 kts | 101° |
| 2026-04-21 21:43 | -3.01996 | -53.97043 | 32870 ft | 446 kts | 101° |
| 2026-04-21 21:44 | -3.02992 | -53.90930 | 32876 ft | 445 kts | 101° |
| 2026-04-21 21:44 | -3.03981 | -53.84851 | 32881 ft | 445 kts | 101° |
| 2026-04-21 21:45 | -3.04976 | -53.78738 | 32876 ft | 446 kts | 101° |
| 2026-04-21 21:45 | -3.05973 | -53.72612 | 32879 ft | 446 kts | 101° |
| 2026-04-21 21:46 | -3.06967 | -53.66494 | 32874 ft | 446 kts | 101° |
| 2026-04-21 21:46 | -3.07958 | -53.60397 | 32874 ft | 447 kts | 101° |
| 2026-04-21 21:47 | -3.08955 | -53.54263 | 32880 ft | 447 kts | 101° |
| 2026-04-21 21:47 | -3.09953 | -53.48120 | 32879 ft | 448 kts | 101° |
| 2026-04-21 21:48 | -3.10951 | -53.41971 | 32875 ft | 448 kts | 101° |
| 2026-04-21 21:48 | -3.11952 | -53.35806 | 32876 ft | 449 kts | 101° |
| 2026-04-21 21:49 | -3.12945 | -53.29688 | 32880 ft | 449 kts | 101° |
| 2026-04-21 21:49 | -3.13945 | -53.23519 | 32881 ft | 449 kts | 101° |
| 2026-04-21 21:50 | -3.14946 | -53.17346 | 32881 ft | 450 kts | 101° |
| 2026-04-21 21:50 | -3.15949 | -53.11159 | 32885 ft | 450 kts | 101° |
| 2026-04-21 21:51 | -3.16944 | -53.05016 | 32877 ft | 451 kts | 101° |
| 2026-04-21 21:51 | -3.17946 | -52.98824 | 32885 ft | 451 kts | 101° |
| 2026-04-21 21:52 | -3.18949 | -52.92632 | 32882 ft | 451 kts | 101° |
| 2026-04-21 21:52 | -3.19952 | -52.86431 | 32881 ft | 452 kts | 101° |
| 2026-04-21 21:53 | -3.20949 | -52.80269 | 32881 ft | 452 kts | 101° |
| 2026-04-21 21:53 | -3.21951 | -52.74068 | 32881 ft | 452 kts | 101° |
| 2026-04-21 21:54 | -3.22956 | -52.67850 | 32885 ft | 452 kts | 101° |
| 2026-04-21 21:54 | -3.23958 | -52.61649 | 32890 ft | 452 kts | 101° |
| 2026-04-21 21:55 | -3.24955 | -52.55478 | 32895 ft | 452 kts | 101° |
| 2026-04-21 21:55 | -3.25958 | -52.49265 | 32897 ft | 452 kts | 101° |
| 2026-04-21 21:56 | -3.26960 | -52.43050 | 32904 ft | 452 kts | 101° |
| 2026-04-21 21:56 | -3.27962 | -52.36841 | 32910 ft | 452 kts | 101° |
| 2026-04-21 21:57 | -3.28958 | -52.30664 | 32914 ft | 452 kts | 101° |
| 2026-04-21 21:57 | -3.29958 | -52.24458 | 32912 ft | 452 kts | 100° |
| 2026-04-21 21:58 | -3.30960 | -52.18239 | 32912 ft | 452 kts | 100° |
| 2026-04-21 21:58 | -3.31960 | -52.12024 | 32911 ft | 452 kts | 100° |
| 2026-04-21 21:59 | -3.32958 | -52.05824 | 32903 ft | 452 kts | 100° |
| 2026-04-21 21:59 | -3.33952 | -51.99646 | 32897 ft | 452 kts | 100° |
| 2026-04-21 22:00 | -3.34951 | -51.93436 | 32893 ft | 452 kts | 100° |
| 2026-04-21 22:00 | -3.35949 | -51.87228 | 32886 ft | 452 kts | 100° |
| 2026-04-21 22:01 | -3.36931 | -51.81011 | 32889 ft | 452 kts | 98° |
| 2026-04-21 22:01 | -3.37306 | -51.74779 | 32893 ft | 452 kts | 93° |
| 2026-04-21 22:02 | -3.37479 | -51.68499 | 32894 ft | 452 kts | 92° |
| 2026-04-21 22:02 | -3.37665 | -51.62226 | 32895 ft | 451 kts | 93° |
| 2026-04-21 22:03 | -3.37884 | -51.55956 | 32892 ft | 450 kts | 93° |
| 2026-04-21 22:03 | -3.38117 | -51.49702 | 32894 ft | 450 kts | 93° |
| 2026-04-21 22:04 | -3.38351 | -51.43485 | 32895 ft | 450 kts | 93° |
| 2026-04-21 22:04 | -3.38586 | -51.37232 | 32893 ft | 449 kts | 93° |
| 2026-04-21 22:05 | -3.38819 | -51.30982 | 32891 ft | 450 kts | 93° |
| 2026-04-21 22:05 | -3.39051 | -51.24729 | 32897 ft | 450 kts | 93° |
| 2026-04-21 22:06 | -3.39282 | -51.18513 | 32899 ft | 450 kts | 93° |
| 2026-04-21 22:06 | -3.39514 | -51.12247 | 32896 ft | 451 kts | 93° |
| 2026-04-21 22:07 | -3.39746 | -51.05971 | 32897 ft | 452 kts | 92° |
| 2026-04-21 22:07 | -3.39978 | -50.99675 | 32897 ft | 453 kts | 92° |
| 2026-04-21 22:08 | -3.40209 | -50.93410 | 32901 ft | 454 kts | 92° |
| 2026-04-21 22:08 | -3.40441 | -50.87088 | 32902 ft | 454 kts | 92° |
| 2026-04-21 22:09 | -3.40673 | -50.80768 | 32896 ft | 455 kts | 92° |
| 2026-04-21 22:09 | -3.40905 | -50.74447 | 32899 ft | 455 kts | 92° |
| 2026-04-21 22:10 | -3.41135 | -50.68160 | 32900 ft | 455 kts | 92° |
| 2026-04-21 22:10 | -3.41365 | -50.61840 | 32903 ft | 455 kts | 92° |
| 2026-04-21 22:11 | -3.41596 | -50.55519 | 32902 ft | 454 kts | 92° |
| 2026-04-21 22:11 | -3.41825 | -50.49213 | 32907 ft | 454 kts | 92° |
| 2026-04-21 22:12 | -3.42055 | -50.42899 | 32905 ft | 453 kts | 92° |
| 2026-04-21 22:12 | -3.42281 | -50.36647 | 32906 ft | 453 kts | 92° |
| 2026-04-21 22:13 | -3.42509 | -50.30343 | 32905 ft | 453 kts | 92° |
| 2026-04-21 22:13 | -3.42736 | -50.24054 | 32912 ft | 453 kts | 92° |
| 2026-04-21 22:14 | -3.42959 | -50.17876 | 32912 ft | 453 kts | 92° |
| 2026-04-21 22:14 | -3.43184 | -50.11621 | 32914 ft | 453 kts | 92° |
| 2026-04-21 22:15 | -3.43410 | -50.05328 | 32908 ft | 453 kts | 93° |
| 2026-04-21 22:15 | -3.43637 | -49.99017 | 32912 ft | 453 kts | 93° |
| 2026-04-21 22:16 | -3.43862 | -49.92713 | 32912 ft | 454 kts | 93° |
| 2026-04-21 22:16 | -3.44086 | -49.86439 | 32908 ft | 454 kts | 93° |
| 2026-04-21 22:17 | -3.44311 | -49.80127 | 32914 ft | 454 kts | 93° |
| 2026-04-21 22:17 | -3.44536 | -49.73804 | 32914 ft | 455 kts | 93° |
| 2026-04-21 22:18 | -3.44761 | -49.67480 | 32915 ft | 455 kts | 93° |
| 2026-04-21 22:18 | -3.44984 | -49.61195 | 32915 ft | 455 kts | 93° |
| 2026-04-21 22:19 | -3.45209 | -49.54858 | 32915 ft | 455 kts | 93° |
| 2026-04-21 22:19 | -3.45440 | -49.48528 | 32916 ft | 455 kts | 93° |
| 2026-04-21 22:20 | -3.45673 | -49.42192 | 32917 ft | 456 kts | 93° |
| 2026-04-21 22:20 | -3.45904 | -49.35854 | 32918 ft | 456 kts | 93° |
| 2026-04-21 22:21 | -3.46134 | -49.29551 | 32916 ft | 456 kts | 93° |
| 2026-04-21 22:21 | -3.46364 | -49.23216 | 32918 ft | 456 kts | 93° |
| 2026-04-21 22:22 | -3.46594 | -49.16874 | 32918 ft | 456 kts | 93° |
| 2026-04-21 22:22 | -3.46822 | -49.10563 | 32919 ft | 456 kts | 93° |
| 2026-04-21 22:23 | -3.47051 | -49.04216 | 32923 ft | 456 kts | 93° |
| 2026-04-21 22:23 | -3.47280 | -48.97878 | 32919 ft | 456 kts | 93° |
| 2026-04-21 22:24 | -3.47508 | -48.91524 | 32921 ft | 456 kts | 93° |
| 2026-04-21 22:24 | -3.47734 | -48.85228 | 32924 ft | 456 kts | 93° |
| 2026-04-21 22:25 | -3.47961 | -48.78895 | 32918 ft | 455 kts | 93° |
| 2026-04-21 22:25 | -3.48188 | -48.72565 | 32921 ft | 455 kts | 93° |
| 2026-04-21 22:26 | -3.48414 | -48.66235 | 32922 ft | 455 kts | 93° |
| 2026-04-21 22:26 | -3.48639 | -48.59923 | 32920 ft | 454 kts | 93° |
| 2026-04-21 22:27 | -3.48862 | -48.53651 | 32923 ft | 454 kts | 93° |
| 2026-04-21 22:27 | -3.49086 | -48.47335 | 32922 ft | 453 kts | 93° |
| 2026-04-21 22:28 | -3.49306 | -48.41032 | 32923 ft | 453 kts | 93° |
| 2026-04-21 22:28 | -3.49518 | -48.34729 | 32927 ft | 453 kts | 93° |
| 2026-04-21 22:29 | -3.49727 | -48.28468 | 32927 ft | 453 kts | 92° |
| 2026-04-21 22:29 | -3.49939 | -48.22169 | 32929 ft | 453 kts | 93° |
| 2026-04-21 22:30 | -3.50151 | -48.15863 | 32928 ft | 453 kts | 92° |
| 2026-04-21 22:30 | -3.50362 | -48.09559 | 32933 ft | 454 kts | 92° |
| 2026-04-21 22:31 | -3.50572 | -48.03282 | 32931 ft | 454 kts | 92° |
| 2026-04-21 22:31 | -3.50782 | -47.96974 | 32932 ft | 454 kts | 92° |
| 2026-04-21 22:32 | -3.50983 | -47.90642 | 32935 ft | 455 kts | 92° |
| 2026-04-21 22:32 | -3.51170 | -47.84323 | 32935 ft | 455 kts | 92° |
| 2026-04-21 22:33 | -3.51355 | -47.78031 | 32938 ft | 455 kts | 92° |
| 2026-04-21 22:33 | -3.51543 | -47.71699 | 32937 ft | 455 kts | 92° |
| 2026-04-21 22:34 | -3.51731 | -47.65369 | 32940 ft | 455 kts | 92° |
| 2026-04-21 22:34 | -3.51919 | -47.59031 | 32936 ft | 456 kts | 92° |
| 2026-04-21 22:35 | -3.52106 | -47.52696 | 32939 ft | 456 kts | 92° |
| 2026-04-21 22:35 | -3.52292 | -47.46395 | 32944 ft | 456 kts | 92° |
| 2026-04-21 22:36 | -3.52604 | -47.36871 | 32941 ft | 456 kts | 93° |
| 2026-04-21 22:36 | -3.52845 | -47.30513 | 32940 ft | 457 kts | 93° |
| 2026-04-21 22:37 | -3.53080 | -47.24205 | 32937 ft | 457 kts | 93° |
| 2026-04-21 22:37 | -3.53313 | -47.17849 | 32939 ft | 457 kts | 93° |
| 2026-04-21 22:38 | -3.53545 | -47.11489 | 32942 ft | 457 kts | 93° |
| 2026-04-21 22:38 | -3.53776 | -47.05131 | 32937 ft | 458 kts | 93° |
| 2026-04-21 22:39 | -3.54006 | -46.98767 | 32940 ft | 458 kts | 93° |
| 2026-04-21 22:39 | -3.54235 | -46.92445 | 32934 ft | 457 kts | 93° |
| 2026-04-21 22:40 | -3.54465 | -46.86083 | 32939 ft | 457 kts | 93° |
| 2026-04-21 22:40 | -3.54694 | -46.79727 | 32942 ft | 457 kts | 93° |
| 2026-04-21 22:41 | -3.54920 | -46.73370 | 32942 ft | 457 kts | 93° |
| 2026-04-21 22:41 | -3.55127 | -46.67023 | 32938 ft | 457 kts | 92° |
| 2026-04-21 22:42 | -3.55328 | -46.60708 | 32940 ft | 457 kts | 93° |
| 2026-04-21 22:42 | -3.55532 | -46.54361 | 32944 ft | 456 kts | 93° |
| 2026-04-21 22:43 | -3.55737 | -46.48012 | 32941 ft | 457 kts | 93° |
| 2026-04-21 22:43 | -3.55942 | -46.41663 | 32946 ft | 456 kts | 93° |
| 2026-04-21 22:44 | -3.56147 | -46.35302 | 32943 ft | 457 kts | 92° |
| 2026-04-21 22:44 | -3.56349 | -46.28995 | 32944 ft | 457 kts | 92° |
| 2026-04-21 22:45 | -3.56553 | -46.22650 | 32943 ft | 457 kts | 92° |
| 2026-04-21 22:45 | -3.56756 | -46.16287 | 32939 ft | 457 kts | 92° |
| 2026-04-21 22:46 | -3.56959 | -46.09930 | 32938 ft | 457 kts | 92° |
| 2026-04-21 22:46 | -3.57160 | -46.03617 | 32942 ft | 457 kts | 92° |
| 2026-04-21 22:47 | -3.57362 | -45.97270 | 32943 ft | 457 kts | 92° |
| 2026-04-21 22:47 | -3.57564 | -45.90901 | 32943 ft | 457 kts | 92° |
| 2026-04-21 22:48 | -3.57729 | -45.85689 | 32943 ft | 457 kts | 92° |
| 2026-04-21 22:48 | -3.57965 | -45.78224 | 32940 ft | 458 kts | 93° |
| 2026-04-21 22:49 | -3.58166 | -45.71856 | 32944 ft | 458 kts | 93° |
| 2026-04-21 22:49 | -3.58366 | -45.65481 | 32947 ft | 458 kts | 93° |
| 2026-04-21 22:50 | -3.58522 | -45.60500 | 32948 ft | 458 kts | 93° |
| 2026-04-21 22:50 | -3.58755 | -45.53074 | 32945 ft | 459 kts | 93° |
| 2026-04-21 22:51 | -3.58950 | -45.46831 | 32947 ft | 459 kts | 93° |
| 2026-04-21 22:51 | -3.59119 | -45.41389 | 32948 ft | 460 kts | 93° |
| 2026-04-21 22:52 | -3.59319 | -45.34965 | 32947 ft | 460 kts | 93° |
| 2026-04-21 22:52 | -3.59518 | -45.28559 | 32949 ft | 461 kts | 93° |
| 2026-04-21 22:53 | -3.59716 | -45.22157 | 32949 ft | 461 kts | 93° |
| 2026-04-21 22:53 | -3.59914 | -45.15743 | 32948 ft | 461 kts | 93° |
| 2026-04-21 22:54 | -3.60111 | -45.09377 | 32951 ft | 461 kts | 93° |
| 2026-04-21 22:54 | -3.60316 | -45.02955 | 32949 ft | 461 kts | 93° |
| 2026-04-21 22:55 | -3.60525 | -44.96546 | 32954 ft | 461 kts | 93° |
| 2026-04-21 22:55 | -3.60729 | -44.90244 | 32952 ft | 461 kts | 93° |
| 2026-04-21 22:56 | -3.60921 | -44.84294 | 32953 ft | 461 kts | 93° |
| 2026-04-21 22:56 | -3.61110 | -44.78414 | 32953 ft | 461 kts | 93° |
| 2026-04-21 22:57 | -3.61302 | -44.72411 | 32956 ft | 461 kts | 93° |
| 2026-04-21 22:57 | -3.61482 | -44.66796 | 32957 ft | 461 kts | 93° |
| 2026-04-21 22:58 | -3.61666 | -44.60729 | 32960 ft | 461 kts | 93° |
| 2026-04-21 22:58 | -3.61839 | -44.55017 | 32960 ft | 461 kts | 93° |
| 2026-04-21 22:59 | -3.62060 | -44.48736 | 32960 ft | 461 kts | 94° |
| 2026-04-21 22:59 | -3.62366 | -44.42433 | 32959 ft | 461 kts | 94° |
| 2026-04-21 23:00 | -3.62669 | -44.36179 | 32963 ft | 461 kts | 94° |
| 2026-04-21 23:00 | -3.62964 | -44.29811 | 32962 ft | 462 kts | 94° |
| 2026-04-21 23:01 | -3.63252 | -44.23537 | 32963 ft | 462 kts | 94° |
| 2026-04-21 23:01 | -3.63470 | -44.17661 | 32966 ft | 462 kts | 93° |
| 2026-04-21 23:02 | -3.63622 | -44.12014 | 32965 ft | 462 kts | 92° |
| 2026-04-21 23:02 | -3.63790 | -44.05775 | 32963 ft | 462 kts | 93° |
| 2026-04-21 23:03 | -3.63972 | -43.99430 | 32963 ft | 461 kts | 93° |
| 2026-04-21 23:03 | -3.64161 | -43.92948 | 32962 ft | 461 kts | 92° |
| 2026-04-21 23:04 | -3.64349 | -43.86549 | 32962 ft | 460 kts | 93° |
| 2026-04-21 23:04 | -3.64534 | -43.80202 | 32965 ft | 459 kts | 92° |
| 2026-04-21 23:05 | -3.64719 | -43.73809 | 32964 ft | 458 kts | 93° |
| 2026-04-21 23:05 | -3.64904 | -43.67442 | 32967 ft | 458 kts | 93° |
| 2026-04-21 23:06 | -3.65088 | -43.61077 | 32963 ft | 458 kts | 93° |
| 2026-04-21 23:06 | -3.65272 | -43.54750 | 32966 ft | 458 kts | 93° |
| 2026-04-21 23:07 | -3.65456 | -43.48380 | 32964 ft | 458 kts | 93° |
| 2026-04-21 23:07 | -3.65641 | -43.42007 | 32966 ft | 458 kts | 93° |
| 2026-04-21 23:08 | -3.65825 | -43.35618 | 32965 ft | 459 kts | 93° |
| 2026-04-21 23:08 | -3.66008 | -43.29279 | 32966 ft | 459 kts | 93° |
| 2026-04-21 23:09 | -3.66191 | -43.22891 | 32966 ft | 459 kts | 93° |
| 2026-04-21 23:09 | -3.66374 | -43.16488 | 32965 ft | 460 kts | 92° |
| 2026-04-21 23:10 | -3.66557 | -43.10101 | 32968 ft | 459 kts | 92° |
| 2026-04-21 23:10 | -3.66738 | -43.03711 | 32969 ft | 459 kts | 92° |
| 2026-04-21 23:11 | -3.66919 | -42.97356 | 32963 ft | 459 kts | 92° |
| 2026-04-21 23:11 | -3.67100 | -42.90978 | 32968 ft | 459 kts | 93° |
| 2026-04-21 23:12 | -3.67280 | -42.84594 | 32965 ft | 459 kts | 92° |
| 2026-04-21 23:12 | -3.67459 | -42.78248 | 32968 ft | 459 kts | 92° |
| 2026-04-21 23:13 | -3.67638 | -42.71877 | 32965 ft | 459 kts | 92° |
| 2026-04-21 23:13 | -3.67818 | -42.65486 | 32967 ft | 459 kts | 92° |
| 2026-04-21 23:14 | -3.67996 | -42.59107 | 32966 ft | 459 kts | 92° |
| 2026-04-21 23:14 | -3.68174 | -42.52718 | 32967 ft | 459 kts | 92° |
| 2026-04-21 23:15 | -3.68351 | -42.46361 | 32969 ft | 459 kts | 92° |
| 2026-04-21 23:15 | -3.68529 | -42.39978 | 32968 ft | 460 kts | 92° |
| 2026-04-21 23:16 | -3.68673 | -42.33584 | 32969 ft | 460 kts | 91° |
| 2026-04-21 23:16 | -3.68699 | -42.27897 | 32969 ft | 460 kts | 91° |
| 2026-04-21 23:17 | -3.68717 | -42.21834 | 32971 ft | 459 kts | 91° |
| 2026-04-21 23:17 | -3.68754 | -42.15486 | 32970 ft | 459 kts | 91° |
| 2026-04-21 23:18 | -3.68794 | -42.09318 | 32970 ft | 458 kts | 91° |
| 2026-04-21 23:18 | -3.68915 | -42.02935 | 32970 ft | 458 kts | 92° |
| 2026-04-21 23:19 | -3.69124 | -41.96569 | 32970 ft | 458 kts | 92° |
| 2026-04-21 23:19 | -3.69327 | -41.90349 | 33117 ft | 462 kts | 92° |
| 2026-04-21 23:20 | -3.69429 | -41.87003 | 33462 ft | 460 kts | 92° |
| 2026-04-21 23:20 | -3.69524 | -41.83811 | 33870 ft | 457 kts | 92° |
| 2026-04-21 23:20 | -3.69617 | -41.80633 | 34155 ft | 456 kts | 92° |
| 2026-04-21 23:20 | -3.69709 | -41.77473 | 34356 ft | 457 kts | 92° |
| 2026-04-21 23:21 | -3.69800 | -41.74328 | 34569 ft | 457 kts | 92° |
| 2026-04-21 23:21 | -3.69894 | -41.71109 | 34841 ft | 456 kts | 92° |
| 2026-04-21 23:21 | -3.69985 | -41.67942 | 34974 ft | 457 kts | 92° |
| 2026-04-21 23:21 | -3.70077 | -41.64800 | 34968 ft | 459 kts | 92° |
| 2026-04-21 23:22 | -3.70261 | -41.58424 | 34974 ft | 456 kts | 92° |
| 2026-04-21 23:22 | -3.70444 | -41.52099 | 34981 ft | 452 kts | 92° |
| 2026-04-21 23:23 | -3.70625 | -41.45826 | 34987 ft | 450 kts | 92° |
| 2026-04-21 23:23 | -3.70804 | -41.39608 | 34991 ft | 449 kts | 92° |
| 2026-04-21 23:24 | -3.70983 | -41.33372 | 34991 ft | 449 kts | 92° |
| 2026-04-21 23:24 | -3.71162 | -41.27118 | 34999 ft | 449 kts | 92° |
| 2026-04-21 23:25 | -3.71341 | -41.20849 | 35005 ft | 451 kts | 92° |
| 2026-04-21 23:25 | -3.71521 | -41.14564 | 35006 ft | 453 kts | 92° |
| 2026-04-21 23:26 | -3.71684 | -41.08294 | 35007 ft | 454 kts | 91° |
| 2026-04-21 23:26 | -3.71832 | -41.01956 | 35007 ft | 456 kts | 91° |
| 2026-04-21 23:27 | -3.71979 | -40.95613 | 35008 ft | 457 kts | 91° |
| 2026-04-21 23:27 | -3.72130 | -40.89243 | 35015 ft | 458 kts | 91° |
| 2026-04-21 23:28 | -3.72274 | -40.83144 | 34996 ft | 458 kts | 91° |
| 2026-04-21 23:28 | -3.72426 | -40.76739 | 34460 ft | 464 kts | 91° |
| 2026-04-21 23:29 | -3.72501 | -40.73542 | 34068 ft | 458 kts | 91° |
| 2026-04-21 23:29 | -3.72576 | -40.70361 | 33543 ft | 455 kts | 91° |
| 2026-04-21 23:29 | -3.72650 | -40.67212 | 33071 ft | 451 kts | 91° |
| 2026-04-21 23:29 | -3.72723 | -40.64088 | 32599 ft | 446 kts | 91° |
| 2026-04-21 23:30 | -3.72796 | -40.60994 | 32147 ft | 443 kts | 91° |
| 2026-04-21 23:30 | -3.72866 | -40.57970 | 31707 ft | 439 kts | 91° |
| 2026-04-21 23:30 | -3.72938 | -40.54926 | 31268 ft | 435 kts | 91° |
| 2026-04-21 23:30 | -3.73008 | -40.51915 | 30853 ft | 431 kts | 91° |
| 2026-04-21 23:31 | -3.73078 | -40.48923 | 30433 ft | 428 kts | 91° |
| 2026-04-21 23:31 | -3.73147 | -40.45954 | 29980 ft | 425 kts | 91° |
| 2026-04-21 23:31 | -3.73216 | -40.43007 | 29473 ft | 422 kts | 91° |
| 2026-04-21 23:31 | -3.73284 | -40.40088 | 28994 ft | 418 kts | 91° |
| 2026-04-21 23:32 | -3.73351 | -40.37193 | 28544 ft | 414 kts | 91° |
| 2026-04-21 23:32 | -3.73418 | -40.34324 | 28099 ft | 410 kts | 91° |
| 2026-04-21 23:32 | -3.73483 | -40.31517 | 27669 ft | 407 kts | 91° |
| 2026-04-21 23:32 | -3.73548 | -40.28703 | 27235 ft | 403 kts | 91° |
| 2026-04-21 23:33 | -3.73613 | -40.25910 | 26804 ft | 400 kts | 91° |
| 2026-04-21 23:33 | -3.73677 | -40.23128 | 26376 ft | 397 kts | 91° |
| 2026-04-21 23:33 | -3.73741 | -40.20376 | 25954 ft | 394 kts | 91° |
| 2026-04-21 23:33 | -3.73804 | -40.17644 | 25531 ft | 392 kts | 91° |
| 2026-04-21 23:34 | -3.73866 | -40.14922 | 25100 ft | 390 kts | 91° |
| 2026-04-21 23:34 | -3.73929 | -40.12219 | 24681 ft | 387 kts | 91° |
| 2026-04-21 23:34 | -3.73989 | -40.09564 | 24255 ft | 386 kts | 91° |
| 2026-04-21 23:34 | -3.73981 | -40.06894 | 23916 ft | 382 kts | 89° |
| 2026-04-21 23:35 | -3.73912 | -40.04244 | 23519 ft | 379 kts | 88° |
| 2026-04-21 23:35 | -3.73822 | -40.01609 | 23032 ft | 378 kts | 88° |
| 2026-04-21 23:35 | -3.73732 | -39.98993 | 22602 ft | 375 kts | 88° |
| 2026-04-21 23:35 | -3.73646 | -39.96397 | 22183 ft | 372 kts | 89° |
| 2026-04-21 23:36 | -3.73566 | -39.93821 | 21767 ft | 369 kts | 89° |
| 2026-04-21 23:36 | -3.73491 | -39.91262 | 21360 ft | 366 kts | 89° |
| 2026-04-21 23:36 | -3.73420 | -39.88724 | 20955 ft | 364 kts | 89° |
| 2026-04-21 23:36 | -3.73352 | -39.86274 | 20564 ft | 361 kts | 89° |
| 2026-04-21 23:37 | -3.73284 | -39.83767 | 20177 ft | 359 kts | 89° |
| 2026-04-21 23:37 | -3.73216 | -39.81274 | 19779 ft | 357 kts | 89° |
| 2026-04-21 23:37 | -3.73149 | -39.78793 | 19362 ft | 356 kts | 89° |
| 2026-04-21 23:37 | -3.73082 | -39.76324 | 18981 ft | 354 kts | 90° |
| 2026-04-21 23:38 | -3.73015 | -39.73858 | 18571 ft | 354 kts | 90° |
| 2026-04-21 23:38 | -3.72949 | -39.71400 | 18162 ft | 353 kts | 90° |
| 2026-04-21 23:38 | -3.72883 | -39.68953 | 17728 ft | 351 kts | 90° |
| 2026-04-21 23:38 | -3.72818 | -39.66554 | 17326 ft | 348 kts | 90° |
| 2026-04-21 23:39 | -3.72752 | -39.64140 | 16930 ft | 346 kts | 90° |
| 2026-04-21 23:39 | -3.72687 | -39.61746 | 16547 ft | 343 kts | 90° |
| 2026-04-21 23:39 | -3.72622 | -39.59362 | 16163 ft | 341 kts | 90° |
| 2026-04-21 23:39 | -3.72557 | -39.57001 | 15788 ft | 338 kts | 90° |
| 2026-04-21 23:40 | -3.72494 | -39.54659 | 15408 ft | 336 kts | 90° |
| 2026-04-21 23:40 | -3.72430 | -39.52323 | 15033 ft | 334 kts | 90° |
| 2026-04-21 23:40 | -3.72367 | -39.50005 | 14660 ft | 332 kts | 90° |
| 2026-04-21 23:40 | -3.72304 | -39.47701 | 14282 ft | 330 kts | 90° |
| 2026-04-21 23:41 | -3.72242 | -39.45438 | 13916 ft | 329 kts | 90° |
| 2026-04-21 23:41 | -3.72180 | -39.43155 | 13510 ft | 328 kts | 90° |
| 2026-04-21 23:41 | -3.72118 | -39.40882 | 13111 ft | 325 kts | 90° |
| 2026-04-21 23:41 | -3.72056 | -39.38622 | 12729 ft | 323 kts | 90° |
| 2026-04-21 23:42 | -3.71994 | -39.36391 | 12358 ft | 320 kts | 89° |
| 2026-04-21 23:42 | -3.71933 | -39.34163 | 11994 ft | 318 kts | 89° |
| 2026-04-21 23:42 | -3.71872 | -39.31959 | 11623 ft | 316 kts | 89° |
| 2026-04-21 23:42 | -3.71812 | -39.29773 | 11275 ft | 313 kts | 89° |
| 2026-04-21 23:43 | -3.71753 | -39.27625 | 10923 ft | 312 kts | 89° |
| 2026-04-21 23:43 | -3.71693 | -39.25462 | 10568 ft | 310 kts | 89° |
| 2026-04-21 23:43 | -3.71634 | -39.23338 | 10375 ft | 298 kts | 89° |
| 2026-04-21 23:43 | -3.71578 | -39.21319 | 10223 ft | 282 kts | 89° |
| 2026-04-21 23:44 | -3.71524 | -39.19405 | 10091 ft | 267 kts | 89° |
| 2026-04-21 23:44 | -3.71473 | -39.17581 | 9974 ft | 258 kts | 90° |
| 2026-04-21 23:44 | -3.71424 | -39.15787 | 9694 ft | 257 kts | 89° |
| 2026-04-21 23:44 | -3.71375 | -39.14005 | 9428 ft | 256 kts | 89° |
| 2026-04-21 23:45 | -3.71327 | -39.12251 | 9161 ft | 254 kts | 89° |
| 2026-04-21 23:45 | -3.71230 | -39.08731 | 8626 ft | 252 kts | 89° |
| 2026-04-21 23:45 | -3.71181 | -39.06980 | 8360 ft | 251 kts | 89° |
| 2026-04-21 23:46 | -3.71133 | -39.05239 | 8095 ft | 250 kts | 89° |
| 2026-04-21 23:46 | -3.71085 | -39.03503 | 7832 ft | 249 kts | 89° |
| 2026-04-21 23:46 | -3.71036 | -39.01766 | 7566 ft | 249 kts | 89° |
| 2026-04-21 23:46 | -3.70988 | -39.00040 | 7306 ft | 248 kts | 89° |
| 2026-04-21 23:47 | -3.70940 | -38.98315 | 7038 ft | 248 kts | 89° |
| 2026-04-21 23:47 | -3.70892 | -38.96595 | 6779 ft | 247 kts | 89° |
| 2026-04-21 23:47 | -3.70845 | -38.94902 | 6520 ft | 247 kts | 89° |
| 2026-04-21 23:47 | -3.70797 | -38.93183 | 6245 ft | 247 kts | 89° |
| 2026-04-21 23:48 | -3.70749 | -38.91468 | 5966 ft | 246 kts | 89° |
| 2026-04-21 23:48 | -3.70701 | -38.89755 | 5697 ft | 246 kts | 89° |
| 2026-04-21 23:48 | -3.70653 | -38.88051 | 5446 ft | 244 kts | 89° |
| 2026-04-21 23:48 | -3.70606 | -38.86374 | 5215 ft | 238 kts | 89° |
| 2026-04-21 23:49 | -3.70560 | -38.84742 | 4932 ft | 230 kts | 89° |
| 2026-04-21 23:49 | -3.70517 | -38.83198 | 4669 ft | 219 kts | 89° |
| 2026-04-21 23:49 | -3.70474 | -38.81697 | 4415 ft | 208 kts | 89° |
| 2026-04-21 23:49 | -3.70441 | -38.80299 | 4204 ft | 200 kts | 92° |
| 2026-04-21 23:50 | -3.70671 | -38.78951 | 4048 ft | 195 kts | 105° |
| 2026-04-21 23:50 | -3.71020 | -38.77666 | 3894 ft | 187 kts | 105° |
| 2026-04-21 23:50 | -3.71356 | -38.76432 | 3751 ft | 180 kts | 105° |
| 2026-04-21 23:50 | -3.71673 | -38.75243 | 3582 ft | 175 kts | 104° |
| 2026-04-21 23:51 | -3.71981 | -38.74069 | 3458 ft | 175 kts | 104° |
| 2026-04-21 23:51 | -3.72288 | -38.72886 | 3324 ft | 177 kts | 104° |
| 2026-04-21 23:51 | -3.72598 | -38.71689 | 3172 ft | 179 kts | 104° |
| 2026-04-21 23:51 | -3.72907 | -38.70492 | 3003 ft | 180 kts | 104° |
| 2026-04-21 23:52 | -3.73236 | -38.69288 | 2793 ft | 178 kts | 105° |
| 2026-04-21 23:52 | -3.73564 | -38.68099 | 2606 ft | 176 kts | 105° |
| 2026-04-21 23:52 | -3.73887 | -38.66927 | 2421 ft | 175 kts | 105° |
| 2026-04-21 23:52 | -3.74209 | -38.65754 | 2238 ft | 175 kts | 105° |
| 2026-04-21 23:53 | -3.74531 | -38.64584 | 2054 ft | 172 kts | 105° |
| 2026-04-21 23:53 | -3.74843 | -38.63450 | 1887 ft | 163 kts | 104° |
| 2026-04-21 23:53 | -3.75131 | -38.62402 | 1739 ft | 156 kts | 104° |
| 2026-04-21 23:53 | -3.75426 | -38.61356 | 1652 ft | 159 kts | 106° |
| 2026-04-21 23:54 | -3.75755 | -38.60296 | 1369 ft | 159 kts | 106° |
| 2026-04-21 23:54 | -3.76033 | -38.59238 | 1097 ft | 154 kts | 103° |
| 2026-04-21 23:54 | -3.76305 | -38.58206 | 851 ft | 153 kts | 104° |
| 2026-04-21 23:54 | -3.76583 | -38.57181 | 688 ft | 153 kts | 105° |
| 2026-04-21 23:55 | -3.76863 | -38.56148 | 500 ft | 156 kts | 104° |
| 2026-04-21 23:55 | -3.77138 | -38.55101 | 316 ft | 157 kts | 104° |
| 2026-04-21 23:55 | -3.77425 | -38.54042 | 99 ft | 156 kts | 104° |
| 2026-04-21 23:55 | -3.77676 | -38.53096 | 90 ft | 115 kts | 105° |
| 2026-04-21 23:56 | -3.77811 | -38.52587 | 91 ft | 57 kts | 105° |
| 2026-04-21 23:56 | -3.77901 | -38.52242 | 90 ft | 43 kts | 104° |
| 2026-04-21 23:56 | -3.77898 | -38.52158 | 90 ft | 7 kts | 36° |
| 2026-04-21 23:56 | -3.77853 | -38.52145 | 90 ft | 7 kts | 14° |
| 2026-04-21 23:57 | -3.77828 | -38.52139 | 92 ft | 0 kts | 15° |
| 2026-04-21 23:59 | -3.77820 | -38.52137 | 89 ft | 4 kts | 14° |
| 2026-04-21 23:59 | -3.77777 | -38.52144 | 91 ft | 7 kts | 321° |
| 2026-04-22 00:00 | -3.77761 | -38.52187 | 91 ft | 7 kts | 284° |
| 2026-04-22 00:00 | -3.77744 | -38.52253 | 90 ft | 11 kts | 284° |
| 2026-04-22 00:00 | -3.77724 | -38.52326 | 91 ft | 11 kts | 287° |
| 2026-04-22 00:00 | -3.77704 | -38.52398 | 92 ft | 11 kts | 284° |
| 2026-04-22 00:01 | -3.77686 | -38.52468 | 90 ft | 10 kts | 284° |
| 2026-04-22 00:01 | -3.77668 | -38.52536 | 90 ft | 10 kts | 284° |
| 2026-04-22 00:01 | -3.77693 | -38.52572 | 94 ft | 7 kts | 189° |
| 2026-04-22 00:01 | -3.77739 | -38.52582 | 90 ft | 7 kts | 194° |
| 2026-04-22 00:02 | -3.77803 | -38.52597 | 91 ft | 12 kts | 194° |
| 2026-04-22 00:02 | -3.77865 | -38.52643 | 91 ft | 12 kts | 245° |
| 2026-04-22 00:02 | -3.77902 | -38.52720 | 91 ft | 12 kts | 243° |
| 2026-04-22 00:02 | -3.77912 | -38.52780 | 94 ft | 8 kts | 286° |
| 2026-04-22 00:03 | -3.77899 | -38.52833 | 90 ft | 9 kts | 283° |
| 2026-04-22 00:03 | -3.77880 | -38.52906 | 92 ft | 14 kts | 285° |
| 2026-04-22 00:03 | -3.77852 | -38.53012 | 91 ft | 17 kts | 285° |
| 2026-04-22 00:03 | -3.77821 | -38.53124 | 91 ft | 16 kts | 285° |
| 2026-04-22 00:04 | -3.77797 | -38.53214 | 93 ft | 11 kts | 284° |
| 2026-04-22 00:04 | -3.77780 | -38.53278 | 93 ft | 9 kts | 284° |
| 2026-04-22 00:04 | -3.77764 | -38.53340 | 91 ft | 9 kts | 285° |
| 2026-04-22 00:04 | -3.77748 | -38.53400 | 91 ft | 7 kts | 285° |
| 2026-04-22 00:05 | -3.77761 | -38.53420 | 93 ft | 3 kts | 191° |
| 2026-04-22 00:05 | -3.77785 | -38.53425 | 92 ft | 3 kts | 194° |
| 2026-04-22 00:05 | -3.77808 | -38.53431 | 92 ft | 3 kts | 194° |
| 2026-04-22 00:05 | -3.77824 | -38.53435 | 91 ft | 1 kts | 195° |
| 2026-04-22 00:06 | -3.77826 | -38.53436 | 93 ft | 0 kts | 195° |